Tiempo atmosférico en la estación meteorológica de Martinet, Lleida (1038 m.)



Fecha
DESCASC
Temp. máxima en grados centígrados (hora)
DESCASC
Temp. mínima en grados centígrados (hora)
DESCASC
Temp. media en grados centígrados
DESCASC
Racha de viento máxima en m/sg (hora)
DESCASC
Velocidad máxima media en intervalos de 10 minutos(hora)
DESCASC
Precipitaciones diarias en mm
DESCASC
Precipitaciones de 00:00 a 06:00 en mm
DESCASC
Precipitaciones de 06:00 a 12:00 en mm
DESCASC
Precipitaciones de 12:00 a 18:00 en mm
DESCASC
Precipitaciones de 18:00 a 24:00 en mm
DESCASC
16-06-2019 26.9 (16:10) 4.8 (06:20) 15.8 7.78 (16:00) 3.61 (14:10) 0 0 0 0 0
15-06-2019 25 (16:20) 8.2 (06:20) 16.6 10.56 (19:40) 7.5 (19:50) 0 0 0 0 0
14-06-2019 23.2 (16:10) 10.4 (06:20) 16.8 9.17 (16:40) 5 (17:50) 1.2 0 1.2 0 0
13-06-2019 24.4 (16:10) 1.8 (00:00) 13.1 5.28 (21:10) 2.78 (09:40) 0 0 0 0 0
12-06-2019 18.8 (17:10) 1.6 (00:00) 10.2 11.11 (15:00) 4.44 (16:00) 0 0 0 0 0
11-06-2019 10.6 (00:00) 4.1 (00:00) 7.4 8.61 (04:10) 4.72 (16:50) 19.4 2.6 12.4 1.8 2.6
10-06-2019 23.7 (17:50) 9.7 (00:00) 16.7 11.39 (15:50) 5.83 (20:50) 1 0 1 0 0
09-06-2019 24.8 (18:00) 10.1 (00:00) 17.4 11.11 (22:00) 6.11 (22:00) 0 0 0 0 0
08-06-2019 25.8 (16:30) 1.8 (00:00) 13.8 10.56 (17:20) 4.17 (17:00) 0 0 0 0 0
07-06-2019 22.2 (17:20) 5.4 (00:00) 13.8 14.72 (11:30) 6.94 (12:30) 0 0 0 0 0
06-06-2019 21.8 (16:10) 2.6 (00:00) 12.2 11.67 (13:30) 5.28 (13:50) 0 0 0 0 0
05-06-2019 23.2 (11:50) 7.1 (00:00) 15.2 13.33 (14:40) 5.83 (14:30) 1 0 0 1 0
04-06-2019 29.4 (16:30) 8.2 (00:00) 18.8 10.56 (14:50) 5.28 (14:00) 0 0 0 0 0
03-06-2019 28.1 (15:20) 9.7 (00:00) 18.9 8.33 (16:10) 3.89 (16:10) 0 0 0 0 0
02-06-2019 30.1 (15:00) 8.1 (00:00) 19.1 11.67 (17:40) 5.83 (17:50) 0.6 0 0 0 0.6
01-06-2019 28.5 (15:50) 7 (00:00) 17.8 7.22 (12:20) 3.61 (12:20) 0 0 0 0 0
31-05-2019 27.7 (17:10) 3.6 (00:00) 15.7 6.11 (18:40) 2.78 (18:40) 0 0 0 0 0
30-05-2019 25.1 (17:00) 2.7 (00:00) 13.9 10 (13:40) 5.56 (13:20) 0 0 0 0 0
29-05-2019 18.5 (16:30) 3 (00:00) 10.8 10.83 (15:00) 5.28 (13:50) 0 0 0 0 0
28-05-2019 22 (16:10) 4.1 (00:00) 13 11.67 (15:40) 6.67 (15:40) 0 0 0 0 0
27-05-2019 22.3 (14:20) 3 (00:00) 12.6 8.89 (14:40) 5 (14:50) 0 0 0 0 0
26-05-2019 18.1 (13:20) 3.1 (00:00) 10.6 13.06 (13:30) 6.94 (13:30) 0 0 0 0 0
25-05-2019 18.6 (15:40) 7.6 (00:00) 13.1 10.83 (17:00) 4.72 (17:50) 0 0 0 0 0
24-05-2019 13.4 (00:00) 9.1 (00:00) 11.3 7.22 (21:20) 3.61 (14:40) 26.8 14.2 11.8 0.8 0
23-05-2019 25.9 (15:40) 3.9 (00:00) 14.9 8.89 (19:00) 4.44 (19:00) 0.2 0 0 0 0.2
22-05-2019 21.9 (17:20) 3.9 (00:00) 12.9 8.33 (21:10) 3.61 (21:10) 0 0 0 0 0
21-05-2019 19.7 (15:30) 5.9 (06:30) 12.8 11.94 (17:50) 6.67 (19:20) 0.6 0 0 0 0.6

Gráficas

Temp. máximas Temp. mínimas Temp. medias Precipitaciones Rachas de viento máximas Velocidades máximas media en intervalos de 10 minutos

Datos horarios

Fecha y hora oficial Temperatura (ºC) Velocidad del viento (km/h) Dirección del viento Racha (km/h) Dirección de racha Precipitación (mm) Presión (hPa) Tendencia (hPa) Humedad (%)
2019-06-19 23:00:00 18.1 4 Nordeste 26 Este 0 -- -- 65
2019-06-19 22:00:00 19.8 23 Este 35 Este 0 -- -- 59
2019-06-19 21:00:00 22.4 4 Norte 15 Oeste 0 -- -- 35
2019-06-19 20:00:00 26.2 7 Oeste 19 Oeste 0 -- -- 27
2019-06-19 19:00:00 27.9 9 Oeste 29 Oeste 0 -- -- 22
2019-06-19 18:00:00 28.7 9 Oeste 24 Oeste 0 -- -- 22
2019-06-19 17:00:00 28 12 Oeste 30 Oeste 0 -- -- 21
2019-06-19 16:00:00 28.3 12 Oeste 40 Oeste 0 -- -- 19
2019-06-19 15:00:00 29.1 17 Oeste 40 Oeste 0 -- -- 16
2019-06-19 14:00:00 -- -- -- -- -- -- -- -- --
2019-06-19 13:00:00 27.6 17 Oeste -- -- -- -- -- 21
2019-06-19 12:00:00 -- -- -- -- -- -- -- -- --
2019-06-19 11:00:00 -- -- -- -- -- -- -- -- --
2019-06-19 10:00:00 -- -- -- -- -- -- -- -- --
2019-06-19 09:00:00 -- -- -- -- -- -- -- -- --
2019-06-19 08:00:00 -- -- -- -- -- -- -- -- --
2019-06-19 07:00:00 -- -- -- -- -- -- -- -- --
2019-06-19 06:00:00 -- -- -- -- -- -- -- -- --
2019-06-19 05:00:00 -- -- -- -- -- -- -- -- --
2019-06-19 04:00:00 9.7 4 Noroeste 8 Nordeste 0 -- -- 76
2019-06-19 03:00:00 10.6 2 Sudeste 5 Norte 0 -- -- 74
2019-06-19 02:00:00 12.1 0 Calma 9 Norte 0 -- -- 65
2019-06-19 01:00:00 13.5 3 Norte 9 Norte 0 -- -- 60
2019-06-19 00:00:00 15.4 3 Norte 10 Norte 0 -- -- 54
2019-06-18 23:00:00 16.9 3 Noroeste 12 Nordeste 0 -- -- 51
2019-06-18 22:00:00 19.6 4 Norte 12 Nordeste 0 -- -- 44
2019-06-18 21:00:00 22.9 4 Noroeste 25 Sudoeste 0 -- -- 37
2019-06-18 20:00:00 25.7 16 Sudoeste 32 Sudoeste 0 -- -- 32
2019-06-18 19:00:00 28.3 14 Sudoeste 35 Sudoeste 0 -- -- 26
2019-06-18 18:00:00 29.5 9 Sudoeste 33 Sudoeste 0 -- -- 26
2019-06-18 17:00:00 29.8 10 Sudoeste 37 Oeste 0 -- -- 26
2019-06-18 16:00:00 30.5 13 Oeste 42 Oeste 0 -- -- 26
2019-06-18 15:00:00 29.7 18 Oeste 34 Oeste 0 -- -- 25
2019-06-18 14:00:00 28.8 15 Oeste 28 Oeste 0 -- -- 31
2019-06-18 13:00:00 25.3 4 Oeste 12 Oeste 0 -- -- 40
2019-06-18 12:00:00 24.4 5 Noroeste 12 Noroeste 0 -- -- 45
2019-06-18 11:00:00 23 3 Sur 10 Este 0 -- -- 48
2019-06-18 10:00:00 19.5 4 Sudeste 12 Este 0 -- -- 60
2019-06-18 09:00:00 15.1 5 Este 13 Este 0 -- -- 76
2019-06-18 08:00:00 12.3 4 Sudeste 8 Sur 0 -- -- 87
2019-06-18 07:00:00 10.5 0 Calma 4 Nordeste 0 -- -- 90
2019-06-18 06:00:00 10.6 0 Calma 19 Este 0 -- -- 89
2019-06-18 05:00:00 10.7 4 Sudeste 15 Este 0 -- -- 89
2019-06-18 04:00:00 11.3 0 Calma 4 Norte 0 -- -- 84
2019-06-18 03:00:00 12.6 0 Calma 4 Oeste 0 -- -- 79
2019-06-18 02:00:00 13.7 0 Calma 4 Norte 0 -- -- 74
2019-06-18 01:00:00 14.9 2 Nordeste 8 Norte 0 -- -- 69
2019-06-18 00:00:00 15.7 0 Calma 6 Norte 0 -- -- 65
2019-06-17 23:00:00 17.1 0 Calma 10 Oeste 0 -- -- 59
2019-06-17 22:00:00 19.7 5 Oeste 24 Nordeste 0 -- -- 50
2019-06-17 21:00:00 21.6 8 Norte 35 Este 0 -- -- 43
2019-06-17 20:00:00 23.8 19 Este 35 Este 0 -- -- 39
2019-06-17 19:00:00 27.4 10 Sudoeste 27 Sudoeste 0 -- -- 29
2019-06-17 18:00:00 27.7 9 Sur 28 Sudoeste 0 -- -- 29
2019-06-17 17:00:00 28.5 11 Sudoeste 23 Sur 0 -- -- 31
2019-06-17 16:00:00 27.7 6 Sudeste 15 Este 0 -- -- 34
2019-06-17 15:00:00 28.3 6 Sudoeste 19 Oeste 0 -- -- 30
2019-06-17 14:00:00 27.8 5 Sudoeste 17 Sudoeste 0 -- -- 30
2019-06-17 13:00:00 26.8 6 Oeste 16 Oeste 0 -- -- 31
2019-06-17 12:00:00 24.1 6 Oeste 16 Oeste 0 -- -- 37
2019-06-17 11:00:00 20.6 3 Sur 8 Este 0 -- -- 52
2019-06-17 10:00:00 17.9 4 Este 8 Este 0 -- -- 60
2019-06-17 09:00:00 13 3 Sudeste 12 Este 0 -- -- 79
2019-06-17 08:00:00 8.7 2 Sudeste 5 Este 0 -- -- 93
2019-06-17 07:00:00 7.2 2 Nordeste 4 Norte 0 -- -- 92
2019-06-17 06:00:00 7.7 0 Calma 5 Nordeste 0 -- -- 91
2019-06-17 05:00:00 8.3 0 Calma 4 Nordeste 0 -- -- 90
2019-06-17 04:00:00 9.3 2 Nordeste 4 Nordeste 0 -- -- 86
2019-06-17 03:00:00 10.2 0 Calma 5 Norte 0 -- -- 81
2019-06-17 02:00:00 11.4 0 Calma 4 Norte 0 -- -- 78
2019-06-17 01:00:00 12.8 3 Noroeste 8 Norte 0 -- -- 73
2019-06-17 00:00:00 14.4 4 Norte 10 Norte 0 -- -- 66
2019-06-16 23:00:00 16.4 4 Norte 22 Este 0 -- -- 60
2019-06-16 22:00:00 19 7 Nordeste 19 Nordeste 0 -- -- 52
2019-06-16 21:00:00 21.6 4 Noroeste 14 Oeste 0 -- -- 43
2019-06-16 20:00:00 24 8 Oeste 20 Oeste 0 -- -- 35
2019-06-16 19:00:00 25.9 5 Oeste 22 Noroeste 0 -- -- 31
2019-06-16 18:00:00 26.7 9 Oeste 24 Oeste 0 -- -- 29
2019-06-16 17:00:00 26.6 10 Oeste 27 Oeste 0 -- -- 30
2019-06-16 16:00:00 26.7 13 Oeste 28 Oeste 0 -- -- 31
2019-06-16 15:00:00 25.9 10 Oeste 25 Sudoeste 0 -- -- 32
2019-06-16 14:00:00 24.7 9 Oeste 20 Oeste 0 -- -- 33
2019-06-16 13:00:00 23.4 10 Oeste 23 Oeste 0 -- -- 33
2019-06-16 12:00:00 21.3 8 Oeste 19 Oeste 0 -- -- 39
2019-06-16 11:00:00 18.1 4 Sudeste 10 Nordeste 0 -- -- 52
2019-06-16 10:00:00 15.1 4 Sudeste 13 Este 0 -- -- 64
2019-06-16 09:00:00 10.6 3 Este 7 Sur 0 -- -- 82
2019-06-16 08:00:00 6.7 0 Calma 6 Nordeste 0 -- -- 96
2019-06-16 07:00:00 4.9 3 Nordeste 7 Sudeste 0 -- -- 97
2019-06-16 06:00:00 5.1 0 Calma 5 Nordeste 0 -- -- 93
2019-06-16 05:00:00 5.7 0 Calma 5 Nordeste 0 -- -- 92
2019-06-16 04:00:00 6.4 3 Nordeste 5 Norte 0 -- -- 92
2019-06-16 03:00:00 7.1 0 Calma 6 Nordeste 0 -- -- 90
2019-06-16 02:00:00 7.9 0 Calma 6 Norte 0 -- -- 89
2019-06-16 01:00:00 8.8 0 Calma 11 Norte 0 -- -- 84
2019-06-16 00:00:00 10.1 3 Norte 15 Nordeste 0 -- -- 80
2019-06-15 23:00:00 11.7 6 Este 15 Este 0 -- -- 74
2019-06-15 22:00:00 13.4 7 Este 28 Este 0 -- -- 68
2019-06-15 21:00:00 15.1 17 Este 35 Este 0 -- -- 62
2019-06-15 20:00:00 17.6 24 Este 38 Este 0 -- -- 56
2019-06-15 19:00:00 22.8 9 Sudoeste 23 Sudoeste 0 -- -- 35
2019-06-15 18:00:00 23.6 11 Oeste 31 Oeste 0 -- -- 36
2019-06-15 17:00:00 24.2 10 Oeste 36 Oeste 0 -- -- 32
2019-06-15 16:00:00 24.9 13 Oeste 35 Oeste 0 -- -- 29
2019-06-15 15:00:00 24.1 18 Oeste 36 Oeste 0 -- -- 26
2019-06-15 14:00:00 24.1 17 Oeste 31 Oeste 0 -- -- 26
2019-06-15 13:00:00 23.2 12 Oeste 32 Oeste 0 -- -- 27
2019-06-15 12:00:00 22 8 Oeste 26 Oeste 0 -- -- 39
2019-06-15 11:00:00 19.6 8 Oeste 22 Oeste 0 -- -- 47
2019-06-15 10:00:00 17.6 5 Oeste 16 Noroeste 0 -- -- 67
2019-06-15 09:00:00 13.5 2 Sudoeste 5 Sur 0 -- -- 82
2019-06-15 08:00:00 9.8 0 Calma 4 Oeste 0 -- -- 95
2019-06-15 07:00:00 8.4 0 Calma 7 Oeste 0 -- -- 95
2019-06-15 06:00:00 8.4 3 Este 5 Este 0 -- -- 94
2019-06-15 05:00:00 8.8 3 Este 10 Este 0 -- -- 93
2019-06-15 04:00:00 9.5 2 Este 8 Nordeste 0 -- -- 91
2019-06-15 03:00:00 10.6 2 Oeste 8 Este 0 -- -- 87
2019-06-15 02:00:00 11.4 3 Norte 7 Sudoeste 0 -- -- 85
2019-06-15 01:00:00 11.4 0 Calma 4 Sur 0 -- -- 83
2019-06-15 00:00:00 12.3 0 Calma 6 Oeste 0 -- -- 76
2019-06-14 23:00:00 14 3 Oeste 10 Oeste 0 -- -- 69
2019-06-14 22:00:00 16 2 Noroeste 10 Oeste 0 -- -- 67
2019-06-14 21:00:00 19 3 Noroeste 17 Sudoeste 0 -- -- 57
2019-06-14 20:00:00 21.4 8 Sudoeste 29 Oeste 0 -- -- 51
2019-06-14 19:00:00 22.4 8 Oeste 32 Oeste 0 -- -- 47
2019-06-14 18:00:00 21.8 14 Oeste 33 Noroeste 0 -- -- 54
2019-06-14 17:00:00 22.2 11 Sudoeste 33 Oeste 0 -- -- 54
2019-06-14 16:00:00 22.9 3 Sur 14 Este 0 -- -- 56
2019-06-14 15:00:00 21.1 4 Norte 17 Este 0 -- -- 59
2019-06-14 14:00:00 19.6 6 Sudeste 14 Sudeste 0 -- -- 62
2019-06-14 13:00:00 20.6 5 Sudoeste 13 Oeste 0 -- -- 60
2019-06-14 12:00:00 17.5 3 Sudoeste 15 Nordeste 0 -- -- 71
2019-06-14 11:00:00 14.7 8 Nordeste 25 Este 0 -- -- 79
2019-06-14 10:00:00 12.8 3 Nordeste 21 Nordeste 0.2 -- -- 91
2019-06-14 09:00:00 11.3 3 Sur 13 Oeste 0.6 -- -- 92
2019-06-14 08:00:00 11.2 3 Sudeste 24 Nordeste 0.4 -- -- 87
2019-06-14 07:00:00 10.8 4 Sudoeste 25 Este 0 -- -- 84
2019-06-14 06:00:00 10.6 3 Oeste 21 Este 0 -- -- 86
2019-06-14 05:00:00 10.8 5 Este 14 Nordeste 0 -- -- 78
2019-06-14 04:00:00 11.1 4 Este 9 Norte 0 -- -- 73
2019-06-14 03:00:00 10.8 2 Noroeste 6 Norte 0 -- -- 74
2019-06-14 02:00:00 12.1 0 Calma 10 Oeste 0 -- -- 70
2019-06-14 01:00:00 13.4 5 Este 16 Norte 0 -- -- 63
2019-06-14 00:00:00 13.8 3 Este 13 Este 0 -- -- 69
2019-06-13 23:00:00 14.9 5 Este 15 Nordeste 0 -- -- 64
2019-06-13 22:00:00 16.9 3 Este 19 Nordeste 0 -- -- 56
2019-06-13 21:00:00 18.7 6 Nordeste 19 Nordeste 0 -- -- 48
2019-06-13 20:00:00 21.4 7 Este 15 Este 0 -- -- 39
2019-06-13 19:00:00 21.9 5 Noroeste 15 Este 0 -- -- 39
2019-06-13 18:00:00 22.6 8 Este 18 Este 0 -- -- 35
2019-06-13 17:00:00 23 4 Oeste 13 Sur 0 -- -- 36
2019-06-13 16:00:00 24.1 5 Sudoeste 17 Oeste 0 -- -- 35
2019-06-13 15:00:00 23.6 6 Sudoeste 17 Sudoeste 0 -- -- 34
2019-06-13 14:00:00 22 4 Sur 14 Sur 0 -- -- 33
2019-06-13 13:00:00 20.2 9 Este 19 Este 0 -- -- 37
2019-06-13 12:00:00 19.6 5 Norte 18 Este 0 -- -- 34
2019-06-13 11:00:00 14.9 3 Sur 9 Este 0 -- -- 54
2019-06-13 10:00:00 12.3 5 Este 15 Este 0 -- -- 62
2019-06-13 09:00:00 8.8 6 Este 14 Este 0 -- -- 75
2019-06-13 08:00:00 3.5 2 Sudeste 5 Este 0 -- -- 98
2019-06-13 07:00:00 1.8 2 Nordeste 5 Sudeste 0 -- -- 97
2019-06-13 06:00:00 1.9 0 Calma 3 Nordeste 0 -- -- 94
2019-06-13 05:00:00 2.5 0 Calma 4 Norte 0 -- -- 93
2019-06-13 04:00:00 2.9 0 Calma 5 Norte 0 -- -- 92
2019-06-13 03:00:00 3.5 0 Calma 6 Norte 0 -- -- 90
2019-06-13 02:00:00 4.3 3 Norte 5 Nordeste 0 -- -- 87
2019-06-13 01:00:00 5.2 0 Calma 4 Nordeste 0 -- -- 82
2019-06-13 00:00:00 6.3 2 Nordeste 6 Nordeste 0 -- -- 79
2019-06-12 23:00:00 7.9 0 Calma 5 Noroeste 0 -- -- 72
2019-06-12 22:00:00 9.9 2 Noroeste 12 Norte 0 -- -- 63
2019-06-12 21:00:00 13.1 5 Norte 14 Norte 0 -- -- 50
2019-06-12 20:00:00 16.7 6 Oeste 19 Sudoeste 0 -- -- 39
2019-06-12 19:00:00 17.3 11 Oeste 30 Oeste 0 -- -- 37
2019-06-12 18:00:00 17.8 8 Sudoeste 30 Oeste 0 -- -- 39
2019-06-12 17:00:00 18.7 9 Sudoeste 30 Oeste 0 -- -- 36
2019-06-12 16:00:00 18.3 16 Oeste 37 Oeste 0 -- -- 37
2019-06-12 15:00:00 17.4 13 Oeste 40 Oeste 0 -- -- 41
2019-06-12 14:00:00 16.5 10 Oeste 31 Oeste 0 -- -- 46
2019-06-12 13:00:00 15.2 14 Oeste 32 Oeste 0 -- -- 49
2019-06-12 12:00:00 13.9 12 Oeste 26 Oeste 0 -- -- 54
2019-06-12 11:00:00 9.8 4 Sudoeste 8 Este 0 -- -- 78
2019-06-12 10:00:00 6.1 3 Este 8 Sudeste 0 -- -- 94
2019-06-12 09:00:00 3.1 3 Sudeste 12 Este 0 -- -- 100
2019-06-12 08:00:00 2.1 3 Sudeste 13 Este 0 -- -- 100
2019-06-12 07:00:00 1.6 2 Nordeste 12 Este 0 -- -- 99
2019-06-12 06:00:00 1.7 2 Nordeste 8 Norte 0 -- -- 99
2019-06-12 05:00:00 2.3 2 Nordeste 6 Nordeste 0 -- -- 98
2019-06-12 04:00:00 2.2 3 Norte 6 Nordeste 0 -- -- 98
2019-06-12 03:00:00 2.6 3 Nordeste 9 Nordeste 0 -- -- 98
2019-06-12 02:00:00 2.8 2 Nordeste 6 Norte 0 -- -- 97
2019-06-12 01:00:00 3.3 0 Calma 4 Nordeste 0 -- -- 96
2019-06-12 00:00:00 4.1 0 Calma 6 Nordeste 0 -- -- 95
2019-06-11 23:00:00 5.3 0 Calma 5 Norte 0 -- -- 95
2019-06-11 22:00:00 6 0 Calma 17 Nordeste 0 -- -- 92
2019-06-11 21:00:00 7.6 7 Este 13 Este 0.2 -- -- 89
2019-06-11 20:00:00 7.7 3 Nordeste 20 Oeste 2.2 -- -- 94
2019-06-11 19:00:00 8.5 0 Calma 22 Este 0.2 -- -- 88
2019-06-11 18:00:00 8.4 13 Este 24 Este 0 -- -- 83
2019-06-11 17:00:00 8.8 15 Este 25 Este 0 -- -- 85
2019-06-11 16:00:00 9.4 11 Este 18 Este 0 -- -- 83
2019-06-11 15:00:00 8.9 6 Este 15 Nordeste 0 -- -- 91
2019-06-11 14:00:00 8.8 3 Este 5 Este 0.2 -- -- 91
2019-06-11 13:00:00 8 0 Calma 9 Este 1.6 -- -- 93
2019-06-11 12:00:00 7.8 4 Este 8 Nordeste 1.4 -- -- 92
2019-06-11 11:00:00 7.4 4 Este 11 Este 2 -- -- 95
2019-06-11 10:00:00 7.1 8 Este 12 Nordeste 1.8 -- -- 95
2019-06-11 09:00:00 6.8 9 Este 14 Este 1.8 -- -- 95
2019-06-11 08:00:00 6.8 6 Este 12 Nordeste 3 -- -- 95
2019-06-11 07:00:00 7.2 0 Calma 5 Norte 2.4 -- -- 94
2019-06-11 06:00:00 7.5 0 Calma 5 Noroeste 1 -- -- 93
2019-06-11 05:00:00 7.9 4 Noroeste 31 Sudoeste 1.6 -- -- 88
2019-06-11 04:00:00 9.6 9 Oeste 27 Sudoeste 0 -- -- 71
2019-06-11 03:00:00 8.8 0 Calma 4 Este 0 -- -- 82
2019-06-11 02:00:00 9.2 2 Nordeste 13 Este 0 -- -- 79
2019-06-11 01:00:00 9.9 5 Este 21 Este 0 -- -- 74
2019-06-11 00:00:00 10.6 8 Este 14 Nordeste 0 -- -- 73
2019-06-10 23:00:00 11.2 7 Este 18 Este 0 -- -- 70
2019-06-10 22:00:00 11.9 5 Nordeste 32 Nordeste 0 -- -- 69
2019-06-10 21:00:00 13.6 19 Este 37 Nordeste 0 -- -- 64
2019-06-10 20:00:00 18.8 10 Sudoeste 32 Sudoeste 0 -- -- 48
2019-06-10 19:00:00 20.1 10 Sudoeste 32 Sudoeste 0 -- -- 43
2019-06-10 18:00:00 23.1 11 Sudoeste 33 Oeste 0 -- -- 38
2019-06-10 17:00:00 22.8 12 Oeste 33 Oeste 0 -- -- 38
2019-06-10 16:00:00 23.2 13 Oeste 41 Oeste 0 -- -- 40
2019-06-10 15:00:00 22.2 8 Nordeste 18 Este 0 -- -- 48
2019-06-10 14:00:00 18.9 14 Nordeste 24 Este 0 -- -- 60
2019-06-10 13:00:00 18.7 10 Este 19 Este 0 -- -- 55
2019-06-10 12:00:00 18.6 8 Este 19 Este 0 -- -- 65
2019-06-10 11:00:00 15.8 7 Este 18 Sudoeste 1 -- -- 79
2019-06-10 10:00:00 15.5 6 Oeste 16 Oeste 0 -- -- 67
2019-06-10 09:00:00 15 6 Este 13 Este 0 -- -- 69
2019-06-10 08:00:00 11.2 3 Sudeste 14 Este 0 -- -- 84
2019-06-10 07:00:00 9.7 4 Este 10 Nordeste 0 -- -- 92
2019-06-10 06:00:00 9.9 0 Calma 4 Nordeste 0 -- -- 90
2019-06-10 05:00:00 9.9 0 Calma 3 Sudeste 0 -- -- 90
2019-06-10 04:00:00 9.9 0 Calma 5 Norte 0 -- -- 88
2019-06-10 03:00:00 10.8 2 Noroeste 9 Norte 0 -- -- 86
2019-06-10 02:00:00 11.4 0 Calma 6 Norte 0 -- -- 83
2019-06-10 01:00:00 12.4 3 Norte 9 Norte 0 -- -- 80
2019-06-10 00:00:00 13.1 4 Norte 10 Noroeste 0 -- -- 77
2019-06-09 23:00:00 14.6 4 Nordeste 32 Este 0 -- -- 71
2019-06-09 22:00:00 16.4 22 Este 40 Este 0 -- -- 64
2019-06-09 21:00:00 19.2 21 Este 36 Este 0 -- -- 54
2019-06-09 20:00:00 22 4 Noroeste 7 Oeste 0 -- -- 44
2019-06-09 19:00:00 23.5 5 Oeste 12 Oeste 0 -- -- 41
2019-06-09 18:00:00 24.8 6 Oeste 13 Oeste 0 -- -- 37
2019-06-09 17:00:00 23.9 6 Oeste 13 Sudoeste 0 -- -- 38
2019-06-09 16:00:00 24.2 6 Oeste 14 Sudoeste 0 -- -- 38
2019-06-09 15:00:00 23.5 7 Oeste 18 Oeste 0 -- -- 42
2019-06-09 14:00:00 22.8 8 Oeste 17 Sudoeste 0 -- -- 41
2019-06-09 13:00:00 22.2 6 Oeste 19 Oeste 0 -- -- 40
2019-06-09 12:00:00 21 9 Oeste 18 Oeste 0 -- -- 42
2019-06-09 11:00:00 19.5 3 Sudoeste 12 Oeste 0 -- -- 49
2019-06-09 10:00:00 16 4 Sur 12 Noroeste 0 -- -- 63
2019-06-09 09:00:00 12.1 4 Norte 21 Este 0 -- -- 76
2019-06-09 08:00:00 11 6 Este 14 Este 0 -- -- 78
2019-06-09 07:00:00 10.5 2 Sur 5 Noroeste 0 -- -- 80
2019-06-09 06:00:00 10.5 3 Noroeste 10 Nordeste 0 -- -- 79
2019-06-09 05:00:00 10.3 3 Noroeste 7 Sudoeste 0 -- -- 81
2019-06-09 04:00:00 10.7 2 Oeste 6 Este 0 -- -- 76
2019-06-09 03:00:00 11.4 3 Nordeste 6 Sudeste 0 -- -- 74
2019-06-09 02:00:00 12 2 Este 5 Este 0 -- -- 73
2019-06-09 01:00:00 12.2 0 Calma 9 Nordeste 0 -- -- 70
2019-06-09 00:00:00 12.9 2 Sudeste 9 Norte 0 -- -- 64
2019-06-08 23:00:00 15 3 Este 12 Sur 0 -- -- 56
2019-06-08 22:00:00 16.6 3 Sudeste 18 Nordeste 0 -- -- 54
2019-06-08 21:00:00 19 4 Norte 21 Oeste 0 -- -- 48
2019-06-08 20:00:00 22.1 6 Oeste 25 Oeste 0 -- -- 37
2019-06-08 19:00:00 24.5 9 Oeste 23 Oeste 0 -- -- 32
2019-06-08 18:00:00 25.4 15 Oeste 38 Oeste 0 -- -- 30
2019-06-08 17:00:00 25.8 15 Oeste 30 Oeste 0 -- -- 30
2019-06-08 16:00:00 25.6 9 Oeste 28 Oeste 0 -- -- 29
2019-06-08 15:00:00 24.3 13 Oeste 34 Oeste 0 -- -- 28
2019-06-08 14:00:00 23.2 13 Oeste 28 Oeste 0 -- -- 27
2019-06-08 13:00:00 22 9 Oeste 22 Oeste 0 -- -- 30
2019-06-08 12:00:00 19.9 7 Sudoeste 19 Oeste 0 -- -- 37
2019-06-08 11:00:00 15.9 3 Sur 13 Este 0 -- -- 44
2019-06-08 10:00:00 13.4 9 Este 14 Este 0 -- -- 52
2019-06-08 09:00:00 9 3 Este 6 Este 0 -- -- 71
2019-06-08 08:00:00 4.7 3 Nordeste 8 Este 0 -- -- 90
2019-06-08 07:00:00 1.8 2 Este 3 Nordeste 0 -- -- 93
2019-06-08 06:00:00 2.2 0 Calma 4 Este 0 -- -- 92
2019-06-08 05:00:00 2.8 0 Calma 3 Sudeste 0 -- -- 90
2019-06-08 04:00:00 3.5 3 Nordeste 4 Nordeste 0 -- -- 87
2019-06-08 03:00:00 4.3 0 Calma 5 Nordeste 0 -- -- 84
2019-06-08 02:00:00 5.2 2 Norte 5 Oeste 0 -- -- 80
2019-06-08 01:00:00 6.4 2 Norte 8 Norte 0 -- -- 77
2019-06-08 00:00:00 8.1 5 Norte 13 Este 0 -- -- 69
2019-06-07 23:00:00 10.8 5 Nordeste 29 Este 0 -- -- 64
2019-06-07 22:00:00 12.6 20 Este 33 Nordeste 0 -- -- 57
2019-06-07 21:00:00 15.9 5 Norte 18 Oeste 0 -- -- 27
2019-06-07 20:00:00 19.6 7 Oeste 24 Oeste 0 -- -- 21
2019-06-07 19:00:00 21.3 9 Oeste 32 Oeste 0 -- -- 19
2019-06-07 18:00:00 22.1 9 Sudoeste 31 Oeste 0 -- -- 22
2019-06-07 17:00:00 22.1 12 Oeste 31 Sudoeste 0 -- -- 28
2019-06-07 16:00:00 21.1 12 Oeste 42 Oeste 0 -- -- 34
2019-06-07 15:00:00 20.3 11 Oeste 38 Oeste 0 -- -- 41
2019-06-07 14:00:00 17.1 14 Oeste 42 Noroeste 0 -- -- 49
2019-06-07 13:00:00 18.7 17 Oeste 47 Sudoeste 0 -- -- 50
2019-06-07 12:00:00 18.6 13 Oeste 53 Sudoeste 0 -- -- 51
2019-06-07 11:00:00 16.7 14 Oeste 37 Oeste 0 -- -- 54
2019-06-07 10:00:00 15.6 15 Oeste 32 Oeste 0 -- -- 59
2019-06-07 09:00:00 13 12 Oeste 25 Oeste 0 -- -- 68
2019-06-07 08:00:00 8 0 Calma 8 Oeste 0 -- -- 82
2019-06-07 07:00:00 5.7 3 Noroeste 8 Norte 0 -- -- 86
2019-06-07 06:00:00 5.4 4 Norte 9 Oeste 0 -- -- 85
2019-06-07 05:00:00 5.6 3 Noroeste 9 Norte 0 -- -- 83
2019-06-07 04:00:00 6.3 0 Calma 6 Nordeste 0 -- -- 79
2019-06-07 03:00:00 7.1 0 Calma 8 Norte 0 -- -- 76
2019-06-07 02:00:00 7.7 3 Noroeste 8 Noroeste 0 -- -- 75
2019-06-07 01:00:00 8.4 2 Oeste 8 Norte 0 -- -- 73
2019-06-07 00:00:00 9.2 3 Oeste 12 Norte 0 -- -- 69
2019-06-06 23:00:00 10.6 4 Norte 11 Norte 0 -- -- 65
2019-06-06 22:00:00 12.9 4 Norte 13 Oeste 0 -- -- 57
2019-06-06 21:00:00 15.4 9 Oeste 24 Sudoeste 0 -- -- 47
2019-06-06 20:00:00 17.7 6 Oeste 20 Oeste 0 -- -- 44
2019-06-06 19:00:00 18.7 8 Sudoeste 35 Sudoeste 0 -- -- 44
2019-06-06 18:00:00 16.8 13 Sur 30 Sudeste 0 -- -- 48
2019-06-06 17:00:00 18.4 16 Sudoeste 35 Oeste 0 -- -- 40
2019-06-06 16:00:00 21.6 12 Sudoeste 36 Sudoeste 0 -- -- 29
2019-06-06 15:00:00 21.1 11 Sudoeste 37 Sudoeste 0 -- -- 34
2019-06-06 14:00:00 20.3 13 Oeste 42 Oeste 0 -- -- 36
2019-06-06 13:00:00 18.9 10 Oeste 30 Oeste 0 -- -- 41
2019-06-06 12:00:00 18.2 12 Oeste 31 Oeste 0 -- -- 41
2019-06-06 11:00:00 15.2 6 Oeste 15 Sudoeste 0 -- -- 50
2019-06-06 10:00:00 12.2 6 Este 14 Este 0 -- -- 62
2019-06-06 09:00:00 8.2 3 Sudeste 7 Sudeste 0 -- -- 81
2019-06-06 08:00:00 4.3 0 Calma 9 Este 0 -- -- 97
2019-06-06 07:00:00 2.6 0 Calma 3 Norte 0 -- -- 95
2019-06-06 06:00:00 3.2 0 Calma 4 Nordeste 0 -- -- 95
2019-06-06 05:00:00 3.7 0 Calma 2 Nordeste 0 -- -- 94
2019-06-06 04:00:00 4.6 0 Calma 3 Sudeste 0 -- -- 91
2019-06-06 03:00:00 5.4 0 Calma 4 Este 0 -- -- 91
2019-06-06 02:00:00 5.3 0 Calma 6 Oeste 0 -- -- 89
2019-06-06 01:00:00 5.9 0 Calma 4 Noroeste 0 -- -- 87
2019-06-06 00:00:00 7.1 0 Calma 11 Nordeste 0 -- -- 82
2019-06-05 23:00:00 8.7 4 Norte 17 Este 0 -- -- 75
2019-06-05 22:00:00 10.7 7 Nordeste 35 Este 0 -- -- 65
2019-06-05 21:00:00 13.8 3 Norte 25 Sudoeste 0 -- -- 58
2019-06-05 20:00:00 16.4 7 Oeste 22 Oeste 0 -- -- 53
2019-06-05 19:00:00 18 9 Oeste 23 Oeste 0 -- -- 51
2019-06-05 18:00:00 17.3 7 Oeste 18 Oeste 0 -- -- 62
2019-06-05 17:00:00 14.2 5 Oeste 10 Sudoeste 0 -- -- 81
2019-06-05 16:00:00 12.2 6 Sudoeste 42 Oeste 1 -- -- 79
2019-06-05 15:00:00 15.1 13 Oeste 48 Oeste 0 -- -- 74
2019-06-05 14:00:00 19.4 11 Oeste 27 Este 0 -- -- 53
2019-06-05 13:00:00 20.9 13 Este 29 Este 0 -- -- 32
2019-06-05 12:00:00 22.5 11 Sur 33 Este 0 -- -- 29
2019-06-05 11:00:00 21.5 19 Este 35 Este 0 -- -- 31
2019-06-05 10:00:00 20.7 9 Norte 34 Este 0 -- -- 29
2019-06-05 09:00:00 16.4 8 Nordeste 20 Norte 0 -- -- 34
2019-06-05 08:00:00 11.1 3 Sudoeste 8 Oeste 0 -- -- 70
2019-06-05 07:00:00 9.2 2 Sur 8 Sudeste 0 -- -- 79
2019-06-05 06:00:00 10.4 3 Norte 8 Sur 0 -- -- 74
2019-06-05 05:00:00 11.5 2 Este 6 Sudeste 0 -- -- 69
2019-06-05 04:00:00 12.3 3 Sur 8 Nordeste 0 -- -- 68
2019-06-05 03:00:00 12.7 3 Noroeste 8 Sudoeste 0 -- -- 66
2019-06-05 02:00:00 12.9 4 Noroeste 8 Noroeste 0 -- -- 62
2019-06-05 01:00:00 13.1 5 Noroeste 8 Oeste 0 -- -- 58
2019-06-05 00:00:00 15 5 Oeste 9 Oeste 0 -- -- 51
2019-06-04 23:00:00 18.3 6 Este 29 Nordeste 0 -- -- 40
2019-06-04 22:00:00 19.1 8 Nordeste 26 Este 0 -- -- 42
2019-06-04 21:00:00 20.8 4 Este 12 Este 0 -- -- 41
2019-06-04 20:00:00 24.7 7 Noroeste 26 Oeste 0 -- -- 33
2019-06-04 19:00:00 27.2 12 Sudoeste 29 Oeste 0 -- -- 26
2019-06-04 18:00:00 28.3 11 Oeste 36 Oeste 0 -- -- 26
2019-06-04 17:00:00 28.9 13 Oeste 37 Oeste 0 -- -- 25
2019-06-04 16:00:00 29.1 18 Oeste 33 Oeste 0 -- -- 26
2019-06-04 15:00:00 28.6 10 Oeste 38 Oeste 0 -- -- 27
2019-06-04 14:00:00 27.6 19 Oeste 35 Oeste 0 -- -- 31
2019-06-04 13:00:00 26.6 12 Oeste 26 Oeste 0 -- -- 36
2019-06-04 12:00:00 23.4 7 Oeste 14 Oeste 0 -- -- 42
2019-06-04 11:00:00 20.6 3 Sudoeste 8 Este 0 -- -- 51
2019-06-04 10:00:00 17.3 4 Sudeste 11 Este 0 -- -- 62
2019-06-04 09:00:00 14.5 8 Este 13 Este 0 -- -- 72
2019-06-04 08:00:00 9.8 3 Sudeste 6 Sudeste 0 -- -- 91
2019-06-04 07:00:00 8.2 0 Calma 4 Nordeste 0 -- -- 93
2019-06-04 06:00:00 8.4 0 Calma 5 Nordeste 0 -- -- 90
2019-06-04 05:00:00 8.9 0 Calma 6 Este 0 -- -- 90
2019-06-04 04:00:00 10.1 3 Este 5 Oeste 0 -- -- 85
2019-06-04 03:00:00 10.8 2 Norte 5 Norte 0 -- -- 82
2019-06-04 02:00:00 11.5 3 Norte 5 Norte 0 -- -- 78
2019-06-04 01:00:00 12.6 2 Norte 5 Nordeste 0 -- -- 73
2019-06-04 00:00:00 14.1 2 Noroeste 8 Norte 0 -- -- 69
2019-06-03 23:00:00 15.7 0 Calma 8 Oeste 0 -- -- 61
2019-06-03 22:00:00 17.7 3 Norte 10 Nordeste 0 -- -- 54
2019-06-03 21:00:00 21.1 0 Calma 13 Norte 0 -- -- 46
2019-06-03 20:00:00 24.6 6 Noroeste 21 Norte 0 -- -- 37
2019-06-03 19:00:00 25.8 9 Oeste 27 Oeste 0 -- -- 33
2019-06-03 18:00:00 25.9 8 Oeste 23 Oeste 0 -- -- 33
2019-06-03 17:00:00 26.8 10 Oeste 30 Oeste 0 -- -- 35
2019-06-03 16:00:00 26.5 13 Oeste 29 Oeste 0 -- -- 35
2019-06-03 15:00:00 26.8 9 Sudoeste 22 Sudoeste 0 -- -- 37
2019-06-03 14:00:00 24.6 8 Oeste 22 Sudoeste 0 -- -- 45
2019-06-03 13:00:00 23.4 3 Sudeste 9 Sudeste 0 -- -- 51
2019-06-03 12:00:00 20.3 4 Sudeste 8 Este 0 -- -- 67
2019-06-03 11:00:00 16.9 4 Sudeste 19 Este 0 -- -- 82
2019-06-03 10:00:00 12.9 10 Este 28 Este 0 -- -- 93
2019-06-03 09:00:00 11.6 2 Este 11 Este 0 -- -- 99
2019-06-03 08:00:00 10.5 3 Este 9 Sudeste 0 -- -- 99
2019-06-03 07:00:00 9.9 2 Nordeste 5 Sur 0 -- -- 98
2019-06-03 06:00:00 9.9 2 Nordeste 8 Este 0 -- -- 98
2019-06-03 05:00:00 10.6 0 Calma 5 Sudeste 0 -- -- 98
2019-06-03 04:00:00 10.7 0 Calma 6 Este 0 -- -- 97
2019-06-03 03:00:00 10.7 4 Nordeste 6 Nordeste 0 -- -- 96
2019-06-03 02:00:00 11.4 0 Calma 9 Norte 0 -- -- 95
2019-06-03 01:00:00 12.2 0 Calma 6 Nordeste 0 -- -- 94
2019-06-03 00:00:00 13.1 3 Norte 9 Noroeste 0 -- -- 93
2019-06-02 23:00:00 14.2 4 Nordeste 12 Norte 0 -- -- 93
2019-06-02 22:00:00 15.3 2 Este 9 Este 0 -- -- 92
2019-06-02 21:00:00 16 4 Norte 7 Nordeste 0 -- -- 91
2019-06-02 20:00:00 17 3 Nordeste 7 Nordeste 0 -- -- 89
2019-06-02 19:00:00 16.7 3 Este 17 Norte 0.6 -- -- 91
2019-06-02 18:00:00 18.5 10 Nordeste 42 Este 0 -- -- 76
2019-06-02 17:00:00 25.7 6 Noroeste 25 Norte 0 -- -- 39
2019-06-02 16:00:00 28.5 8 Sudoeste 22 Oeste 0 -- -- 35
2019-06-02 15:00:00 30.1 10 Oeste 28 Oeste 0 -- -- 29
2019-06-02 14:00:00 29 9 Oeste 20 Oeste 0 -- -- 28
2019-06-02 13:00:00 27.7 7 Sudoeste 20 Sudoeste 0 -- -- 30
2019-06-02 12:00:00 24.6 5 Oeste 12 Oeste 0 -- -- 43
2019-06-02 11:00:00 21.1 3 Sudeste 9 Este 0 -- -- 53
2019-06-02 10:00:00 18.5 4 Este 10 Este 0 -- -- 60
2019-06-02 09:00:00 13.6 3 Este 5 Este 0 -- -- 80
2019-06-02 08:00:00 10.2 2 Este 5 Nordeste 0 -- -- 92
2019-06-02 07:00:00 8.1 0 Calma 4 Nordeste 0 -- -- 93
2019-06-02 06:00:00 8.6 0 Calma 3 Noroeste 0 -- -- 92
2019-06-02 05:00:00 9.2 0 Calma 3 Este 0 -- -- 90
2019-06-02 04:00:00 10.2 0 Calma 4 Norte 0 -- -- 86
2019-06-02 03:00:00 11.2 0 Calma 6 Norte 0 -- -- 83
2019-06-02 02:00:00 12.4 3 Norte 8 Norte 0 -- -- 78
2019-06-02 01:00:00 13.5 3 Norte 10 Norte 0 -- -- 74
2019-06-02 00:00:00 15 0 Calma 10 Norte 0 -- -- 69
2019-06-01 23:00:00 16.3 5 Norte 12 Norte 0 -- -- 64
2019-06-01 22:00:00 18.4 4 Norte 13 Norte 0 -- -- 58
2019-06-01 21:00:00 21.8 5 Norte 16 Norte 0 -- -- 48
2019-06-01 20:00:00 24.4 5 Noroeste 19 Oeste 0 -- -- 41
2019-06-01 19:00:00 26.2 6 Sudoeste 18 Sudeste 0 -- -- 37
2019-06-01 18:00:00 25.4 6 Sur 18 Sudoeste 0 -- -- 42
2019-06-01 17:00:00 26.4 8 Sudoeste 24 Oeste 0 -- -- 40
2019-06-01 16:00:00 28.2 8 Oeste 22 Oeste 0 -- -- 34
2019-06-01 15:00:00 27.3 7 Sudoeste 20 Sudoeste 0 -- -- 37
2019-06-01 14:00:00 26.3 8 Oeste 21 Oeste 0 -- -- 40
2019-06-01 13:00:00 25 9 Oeste 26 Oeste 0 -- -- 41
2019-06-01 12:00:00 23.2 10 Oeste 21 Sudoeste 0 -- -- 46
2019-06-01 11:00:00 20.1 9 Oeste 15 Oeste 0 -- -- 54
2019-06-01 10:00:00 17.2 3 Este 8 Este 0 -- -- 64
2019-06-01 09:00:00 13.5 3 Este 7 Este 0 -- -- 74
2019-06-01 08:00:00 8.6 0 Calma 4 Este 0 -- -- 92
2019-06-01 07:00:00 7 0 Calma 5 Nordeste 0 -- -- 94
2019-06-01 06:00:00 7.5 3 Nordeste 5 Sudeste 0 -- -- 92
2019-06-01 05:00:00 8.2 0 Calma 6 Norte 0 -- -- 91
2019-06-01 04:00:00 9.1 2 Nordeste 6 Norte 0 -- -- 89
2019-06-01 03:00:00 9.9 3 Nordeste 5 Nordeste 0 -- -- 86
2019-06-01 02:00:00 10.9 0 Calma 6 Norte 0 -- -- 82
2019-06-01 01:00:00 12.1 3 Noroeste 6 Norte 0 -- -- 78
2019-06-01 00:00:00 13.7 0 Calma 8 Norte 0 -- -- 74
2019-05-31 23:00:00 15.6 2 Noroeste 5 Oeste 0 -- -- 67
2019-05-31 22:00:00 18.2 3 Nordeste 16 Este 0 -- -- 57
2019-05-31 21:00:00 20.3 5 Este 21 Este 0 -- -- 50
2019-05-31 20:00:00 22.5 10 Este 20 Este 0 -- -- 44
2019-05-31 19:00:00 24.6 2 Este 22 Este 0 -- -- 39
2019-05-31 18:00:00 26.5 8 Este 18 Oeste 0 -- -- 35
2019-05-31 17:00:00 27.5 9 Oeste 19 Oeste 0 -- -- 28
2019-05-31 16:00:00 27.3 8 Oeste 18 Sudoeste 0 -- -- 28
2019-05-31 15:00:00 26.4 9 Sudoeste 14 Oeste 0 -- -- 28
2019-05-31 14:00:00 25.2 6 Oeste 15 Sudoeste 0 -- -- 28
2019-05-31 13:00:00 23.9 6 Oeste 15 Oeste 0 -- -- 31
2019-05-31 12:00:00 21.5 5 Sudoeste 9 Sudoeste 0 -- -- 29
2019-05-31 11:00:00 18.2 3 Oeste 9 Sudeste 0 -- -- 42
2019-05-31 10:00:00 15 4 Sudeste 14 Este 0 -- -- 53
2019-05-31 09:00:00 10.4 3 Sudeste 12 Nordeste 0 -- -- 70
2019-05-31 08:00:00 6.5 2 Este 6 Nordeste 0 -- -- 81
2019-05-31 07:00:00 3.7 2 Oeste 5 Sudoeste 0 -- -- 90
2019-05-31 06:00:00 3.9 4 Norte 6 Norte 0 -- -- 89
2019-05-31 05:00:00 4.7 0 Calma 5 Este 0 -- -- 84
2019-05-31 04:00:00 5.4 0 Calma 4 Este 0 -- -- 81
2019-05-31 03:00:00 6.5 0 Calma 6 Norte 0 -- -- 76
2019-05-31 02:00:00 8.1 3 Nordeste 7 Norte 0 -- -- 67
2019-05-31 01:00:00 9 0 Calma 6 Norte 0 -- -- 63
2019-05-31 00:00:00 10.7 3 Norte 9 Norte 0 -- -- 59
2019-05-30 23:00:00 13.1 2 Noroeste 9 Nordeste 0 -- -- 49
2019-05-30 22:00:00 15.8 3 Norte 16 Este 0 -- -- 42
2019-05-30 21:00:00 18.5 7 Norte 24 Este 0 -- -- 34
2019-05-30 20:00:00 21.1 6 Este 28 Nordeste 0 -- -- 28
2019-05-30 19:00:00 23 12 Este 35 Este 0 -- -- 25
2019-05-30 18:00:00 24 11 Este 26 Este 0 -- -- 23
2019-05-30 17:00:00 25.1 8 Sudeste 28 Este 0 -- -- 25
2019-05-30 16:00:00 24.4 10 Este 33 Este 0 -- -- 27
2019-05-30 15:00:00 23.3 15 Este 32 Este 0 -- -- 29
2019-05-30 14:00:00 22.1 10 Este 36 Nordeste 0 -- -- 36
2019-05-30 13:00:00 21.9 18 Este 31 Este 0 -- -- 35
2019-05-30 12:00:00 20.8 15 Este 26 Nordeste 0 -- -- 38
2019-05-30 11:00:00 18.2 8 Este 21 Este 0 -- -- 46
2019-05-30 10:00:00 13.7 2 Sudeste 6 Sudeste 0 -- -- 61
2019-05-30 09:00:00 9.7 2 Sur 5 Sur 0 -- -- 71
2019-05-30 08:00:00 5.4 2 Este 5 Sudoeste 0 -- -- 90
2019-05-30 07:00:00 2.7 2 Nordeste 5 Nordeste 0 -- -- 91
2019-05-30 06:00:00 3.1 0 Calma 8 Norte 0 -- -- 90
2019-05-30 05:00:00 3.2 3 Noroeste 6 Norte 0 -- -- 89
2019-05-30 04:00:00 3.9 0 Calma 6 Norte 0 -- -- 86
2019-05-30 03:00:00 4.8 2 Norte 8 Norte 0 -- -- 81
2019-05-30 02:00:00 5.6 0 Calma 8 Sudoeste 0 -- -- 74
2019-05-30 01:00:00 5.6 0 Calma 5 Norte 0 -- -- 75
2019-05-30 00:00:00 6.8 2 Norte 8 Norte 0 -- -- 67
2019-05-29 23:00:00 8.5 4 Noroeste 9 Oeste 0 -- -- 60
2019-05-29 22:00:00 11.2 4 Este 18 Norte 0 -- -- 49
2019-05-29 21:00:00 12.6 5 Norte 21 Norte 0 -- -- 43
2019-05-29 20:00:00 14.2 8 Norte 36 Nordeste 0 -- -- 36
2019-05-29 19:00:00 16.3 10 Norte 33 Nordeste 0 -- -- 31
2019-05-29 18:00:00 17.7 11 Nordeste 32 Norte 0 -- -- 32
2019-05-29 17:00:00 18.2 12 Nordeste 34 Nordeste 0 -- -- 29
2019-05-29 16:00:00 17.8 13 Nordeste 39 Nordeste 0 -- -- 29
2019-05-29 15:00:00 17.3 15 Nordeste 39 Nordeste 0 -- -- 28
2019-05-29 14:00:00 16.9 13 Norte 36 Nordeste 0 -- -- 30
2019-05-29 13:00:00 16.2 9 Norte 30 Nordeste 0 -- -- 37
2019-05-29 12:00:00 14.7 4 Nordeste 9 Sur 0 -- -- 38
2019-05-29 11:00:00 14.2 4 Sudoeste 14 Oeste 0 -- -- 42
2019-05-29 10:00:00 12.6 4 Sudoeste 12 Este 0 -- -- 48
2019-05-29 09:00:00 9.8 4 Sudeste 17 Este 0 -- -- 59
2019-05-29 08:00:00 5.7 3 Noroeste 12 Norte 0 -- -- 76
2019-05-29 07:00:00 3 4 Norte 10 Oeste 0 -- -- 87
2019-05-29 06:00:00 3.4 4 Oeste 6 Oeste 0 -- -- 86
2019-05-29 05:00:00 3.5 2 Noroeste 8 Norte 0 -- -- 85
2019-05-29 04:00:00 4 3 Noroeste 8 Norte 0 -- -- 82
2019-05-29 03:00:00 4.5 4 Nordeste 7 Nordeste 0 -- -- 78
2019-05-29 02:00:00 5.6 2 Norte 9 Oeste 0 -- -- 73
2019-05-29 01:00:00 6.7 3 Nordeste 8 Nordeste 0 -- -- 65
2019-05-29 00:00:00 8.3 4 Nordeste 18 Sur 0 -- -- 56
2019-05-28 23:00:00 9.6 5 Noroeste 15 Este 0 -- -- 49
2019-05-28 22:00:00 11.8 4 Norte 20 Noroeste 0 -- -- 45
2019-05-28 21:00:00 13.7 10 Norte 27 Norte 0 -- -- 34
2019-05-28 20:00:00 16.8 6 Noroeste 18 Sudoeste 0 -- -- 30
2019-05-28 19:00:00 19.1 6 Sudoeste 27 Noroeste 0 -- -- 27
2019-05-28 18:00:00 21.4 8 Oeste 31 Oeste 0 -- -- 27
2019-05-28 17:00:00 21.7 15 Oeste 38 Oeste 0 -- -- 28
2019-05-28 16:00:00 21.6 23 Sudoeste 42 Sudoeste 0 -- -- 25
2019-05-28 15:00:00 21.6 19 Sudoeste 37 Sudoeste 0 -- -- 27
2019-05-28 14:00:00 21.5 21 Sudoeste 36 Sudoeste 0 -- -- 27
2019-05-28 13:00:00 20.5 7 Oeste 20 Oeste 0 -- -- 31
2019-05-28 12:00:00 18.1 3 Sur 10 Sudeste 0 -- -- 40
2019-05-28 11:00:00 16.7 7 Este 14 Este 0 -- -- 37
2019-05-28 10:00:00 13.8 3 Este 21 Este 0 -- -- 50
2019-05-28 09:00:00 10.1 3 Sudeste 5 Este 0 -- -- 75
2019-05-28 08:00:00 7 4 Nordeste 5 Este 0 -- -- 89
2019-05-28 07:00:00 4.3 2 Nordeste 5 Nordeste 0 -- -- 95
2019-05-28 06:00:00 4.3 2 Norte 6 Sudeste 0 -- -- 94
2019-05-28 05:00:00 4.8 4 Nordeste 6 Nordeste 0 -- -- 91
2019-05-28 04:00:00 5.4 2 Norte 7 Este 0 -- -- 88
2019-05-28 03:00:00 6.1 2 Este 5 Nordeste 0 -- -- 86
2019-05-28 02:00:00 6.9 2 Nordeste 5 Nordeste 0 -- -- 82
2019-05-28 01:00:00 8.1 2 Norte 7 Noroeste 0 -- -- 77
2019-05-28 00:00:00 9.7 3 Oeste 13 Norte 0 -- -- 72
2019-05-27 23:00:00 11.8 3 Oeste 22 Nordeste 0 -- -- 64
2019-05-27 22:00:00 14.3 9 Nordeste 22 Este 0 -- -- 53
2019-05-27 21:00:00 15.8 4 Nordeste 21 Norte 0 -- -- 46
2019-05-27 20:00:00 18.6 7 Norte 26 Norte 0 -- -- 42
2019-05-27 19:00:00 19 6 Norte 19 Noroeste 0 -- -- 42
2019-05-27 18:00:00 18.8 6 Norte 24 Este 0 -- -- 44
2019-05-27 17:00:00 19.5 9 Nordeste 30 Este 0 -- -- 41
2019-05-27 16:00:00 21.5 14 Este 29 Este 0 -- -- 36
2019-05-27 15:00:00 21.7 12 Nordeste 32 Nordeste 0 -- -- 38
2019-05-27 14:00:00 21.9 6 Oeste 14 Oeste 0 -- -- 40
2019-05-27 13:00:00 20.3 3 Sur 12 Sur 0 -- -- 43
2019-05-27 12:00:00 19.7 5 Nordeste 23 Este 0 -- -- 47
2019-05-27 11:00:00 17 4 Sudeste 12 Sur 0 -- -- 51
2019-05-27 10:00:00 13.8 3 Sur 9 Este 0 -- -- 60
2019-05-27 09:00:00 9.2 3 Sudeste 9 Nordeste 0 -- -- 82
2019-05-27 08:00:00 6.3 3 Norte 5 Noroeste 0 -- -- 94
2019-05-27 07:00:00 3.1 0 Calma 6 Nordeste 0 -- -- 96
2019-05-27 06:00:00 3.6 3 Nordeste 5 Nordeste 0 -- -- 95
2019-05-27 05:00:00 4.1 4 Este 8 Este 0 -- -- 93
2019-05-27 04:00:00 4.3 0 Calma 4 Sudeste 0 -- -- 91
2019-05-27 03:00:00 4.7 2 Sur 5 Norte 0 -- -- 89
2019-05-27 02:00:00 5.3 3 Noroeste 7 Norte 0 -- -- 87
2019-05-27 01:00:00 6 0 Calma 8 Norte 0 -- -- 82
2019-05-27 00:00:00 7 3 Noroeste 13 Norte 0 -- -- 78
2019-05-26 23:00:00 8.4 5 Norte 11 Norte 0 -- -- 71
2019-05-26 22:00:00 10.3 0 Calma 20 Nordeste 0 -- -- 62
2019-05-26 21:00:00 12.4 5 Nordeste 22 Este 0 -- -- 52
2019-05-26 20:00:00 15.2 10 Norte 26 Nordeste 0 -- -- 42
2019-05-26 19:00:00 16.8 7 Norte 28 Norte 0 -- -- 39
2019-05-26 18:00:00 17 7 Este 24 Nordeste 0 -- -- 41
2019-05-26 17:00:00 15.9 6 Sudeste 21 Este 0 -- -- 49
2019-05-26 16:00:00 16.2 6 Nordeste 31 Este 0 -- -- 44
2019-05-26 15:00:00 16.1 10 Norte 32 Este 0 -- -- 49
2019-05-26 14:00:00 16.1 8 Este 47 Este 0 -- -- 51
2019-05-26 13:00:00 16.9 7 Este 17 Norte 0 -- -- 45
2019-05-26 12:00:00 14 5 Oeste 15 Oeste 0 -- -- 67
2019-05-26 11:00:00 12.4 3 Oeste 7 Oeste 0 -- -- 73
2019-05-26 10:00:00 9.1 2 Sudoeste 8 Oeste 0 -- -- 88
2019-05-26 09:00:00 6.3 0 Calma 7 Oeste 0 -- -- 95
2019-05-26 08:00:00 4.1 2 Este 6 Noroeste 0 -- -- 97
2019-05-26 07:00:00 3.1 0 Calma 5 Sur 0 -- -- 96
2019-05-26 06:00:00 3.3 0 Calma 4 Este 0 -- -- 95
2019-05-26 05:00:00 3.7 0 Calma 3 Nordeste 0 -- -- 94
2019-05-26 04:00:00 4.3 0 Calma 4 Norte 0 -- -- 93
2019-05-26 03:00:00 4.9 0 Calma 8 Este 0 -- -- 91
2019-05-26 02:00:00 5.9 3 Nordeste 8 Norte 0 -- -- 87
2019-05-26 01:00:00 7 4 Norte 9 Norte 0 -- -- 83
2019-05-26 00:00:00 8.3 2 Norte 10 Este 0 -- -- 77
2019-05-25 23:00:00 10.8 6 Nordeste 23 Este 0 -- -- 66
2019-05-25 22:00:00 11.7 8 Este 23 Este 0 -- -- 62
2019-05-25 21:00:00 13.1 13 Este 31 Nordeste 0 -- -- 54
2019-05-25 20:00:00 14.6 6 Norte 32 Nordeste 0 -- -- 52
2019-05-25 19:00:00 15.8 10 Nordeste 30 Este 0 -- -- 48
2019-05-25 18:00:00 16.1 13 Este 36 Este 0 -- -- 54
2019-05-25 17:00:00 15.9 12 Nordeste 39 Nordeste 0 -- -- 51
2019-05-25 16:00:00 16.7 11 Este 27 Este 0 -- -- 53
2019-05-25 15:00:00 16 4 Sur 21 Nordeste 0 -- -- 56
2019-05-25 14:00:00 14.9 13 Este 27 Este 0 -- -- 59
2019-05-25 13:00:00 14.8 10 Este 27 Este 0 -- -- 59
2019-05-25 12:00:00 14.4 13 Este 29 Este 0 -- -- 63
2019-05-25 11:00:00 13.5 9 Nordeste 15 Nordeste 0 -- -- 66
2019-05-25 10:00:00 11.5 3 Nordeste 6 Nordeste 0 -- -- 81
2019-05-25 09:00:00 9.8 0 Calma 3 Noroeste 0 -- -- 87
2019-05-25 08:00:00 8.4 0 Calma 4 Oeste 0 -- -- 96
2019-05-25 07:00:00 7.6 2 Oeste 6 Oeste 0 -- -- 96
2019-05-25 06:00:00 7.7 4 Oeste 7 Oeste 0 -- -- 95
2019-05-25 05:00:00 7.7 0 Calma 6 Oeste 0 -- -- 96
2019-05-25 04:00:00 7.9 3 Noroeste 6 Oeste 0 -- -- 94
2019-05-25 03:00:00 8.1 2 Oeste 5 Oeste 0 -- -- 94
2019-05-25 02:00:00 8.6 0 Calma 6 Oeste 0 -- -- 94
2019-05-25 01:00:00 8.7 2 Oeste 6 Oeste 0 -- -- 92
2019-05-25 00:00:00 9.1 2 Noroeste 13 Este 0 -- -- 91
2019-05-24 23:00:00 9.5 5 Nordeste 12 Nordeste 0 -- -- 89
2019-05-24 22:00:00 10.4 6 Este 26 Nordeste 0 -- -- 84
2019-05-24 21:00:00 11.1 8 Este 16 Este 0 -- -- 81
2019-05-24 20:00:00 12 4 Este 7 Este 0 -- -- 85
2019-05-24 19:00:00 12.6 2 Oeste 6 Oeste 0 -- -- 84
2019-05-24 18:00:00 12.3 3 Oeste 14 Este 0 -- -- 85
2019-05-24 17:00:00 11.4 9 Nordeste 15 Este 0.2 -- -- 85
2019-05-24 16:00:00 11.1 5 Este 15 Este 0.2 -- -- 87
2019-05-24 15:00:00 10.3 10 Este 19 Este 0 -- -- 91
2019-05-24 14:00:00 10.4 6 Este 18 Este 0.2 -- -- 90
2019-05-24 13:00:00 10.3 5 Este 18 Este 0.2 -- -- 92
2019-05-24 12:00:00 10.1 6 Nordeste 19 Este 1.2 -- -- 93
2019-05-24 11:00:00 9.9 7 Nordeste 18 Este 1.8 -- -- 95
2019-05-24 10:00:00 9.9 10 Este 18 Este 2.6 -- -- 96
2019-05-24 09:00:00 10 5 Nordeste 12 Nordeste 2.8 -- -- 97
2019-05-24 08:00:00 10 4 Este 10 Este 2 -- -- 97
2019-05-24 07:00:00 10.1 8 Este 14 Este 1.4 -- -- 96
2019-05-24 06:00:00 10.4 0 Calma 8 Oeste 4.6 -- -- 96
2019-05-24 05:00:00 10.5 4 Oeste 11 Oeste 7 -- -- 96
2019-05-24 04:00:00 10.8 0 Calma 4 Noroeste 1.2 -- -- 94
2019-05-24 03:00:00 10.8 3 Nordeste 12 Nordeste 0 -- -- 93
2019-05-24 02:00:00 11 7 Nordeste 21 Este 0.6 -- -- 92
2019-05-24 01:00:00 12 4 Noroeste 20 Oeste 0.8 -- -- 89
2019-05-24 00:00:00 13.4 6 Nordeste 19 Nordeste 0 -- -- 73
2019-05-23 23:00:00 13.5 3 Sur 14 Norte 0.2 -- -- 76
2019-05-23 22:00:00 16 4 Nordeste 15 Nordeste 0 -- -- 72
2019-05-23 21:00:00 17.8 8 Este 22 Este 0 -- -- 49
2019-05-23 20:00:00 19 4 Nordeste 25 Este 0 -- -- 46
2019-05-23 19:00:00 20.2 16 Este 32 Este 0 -- -- 42
2019-05-23 18:00:00 23.3 6 Sudoeste 24 Oeste 0 -- -- 33
2019-05-23 17:00:00 25.2 10 Oeste 21 Noroeste 0 -- -- 28
2019-05-23 16:00:00 25.4 7 Sudoeste 18 Oeste 0 -- -- 25
2019-05-23 15:00:00 25 4 Oeste 19 Oeste 0 -- -- 27
2019-05-23 14:00:00 24.4 8 Oeste 18 Oeste 0 -- -- 25
2019-05-23 13:00:00 23 8 Sudoeste 15 Oeste 0 -- -- 28
2019-05-23 12:00:00 20.3 5 Oeste 12 Oeste 0 -- -- 37
2019-05-23 11:00:00 16.9 4 Sudeste 12 Este 0 -- -- 51
2019-05-23 10:00:00 13.9 4 Sudeste 18 Este 0 -- -- 63
2019-05-23 09:00:00 9.4 5 Este 14 Este 0 -- -- 81
2019-05-23 08:00:00 5.7 0 Calma 5 Nordeste 0 -- -- 93
2019-05-23 07:00:00 3.9 0 Calma 4 Norte 0 -- -- 94
2019-05-23 06:00:00 4.3 0 Calma 3 Nordeste 0 -- -- 92
2019-05-23 05:00:00 5 0 Calma 3 Nordeste 0 -- -- 91
2019-05-23 04:00:00 5.8 0 Calma 4 Nordeste 0 -- -- 87
2019-05-23 03:00:00 6.6 3 Nordeste 5 Nordeste 0 -- -- 84
2019-05-23 02:00:00 8 3 Nordeste 8 Norte 0 -- -- 79
2019-05-23 01:00:00 9.3 4 Norte 9 Norte 0 -- -- 74
2019-05-23 00:00:00 10.8 4 Norte 10 Norte 0 -- -- 74
2019-05-22 23:00:00 12.9 4 Norte 13 Este 0 -- -- 69
2019-05-22 22:00:00 15.1 10 Este 30 Este 0 -- -- 59
2019-05-22 21:00:00 16.9 13 Este 23 Este 0 -- -- 52
2019-05-22 20:00:00 18.9 10 Oeste 22 Oeste 0 -- -- 38
2019-05-22 19:00:00 18.9 4 Oeste 14 Noroeste 0 -- -- 45
2019-05-22 18:00:00 19.8 6 Oeste 18 Oeste 0 -- -- 40
2019-05-22 17:00:00 20.8 4 Sudoeste 8 Sudoeste 0 -- -- 38
2019-05-22 16:00:00 20.3 4 Oeste 21 Este 0 -- -- 37
2019-05-22 15:00:00 20.6 9 Nordeste 28 Este 0 -- -- 37
2019-05-22 14:00:00 21.3 8 Este 17 Este 0 -- -- 31
2019-05-22 13:00:00 19.7 4 Sur 13 Este 0 -- -- 33
2019-05-22 12:00:00 17.7 5 Sur 15 Este 0 -- -- 46
2019-05-22 11:00:00 14.7 4 Sudeste 13 Este 0 -- -- 49
2019-05-22 10:00:00 11.1 4 Este 12 Nordeste 0 -- -- 78
2019-05-22 09:00:00 6.7 3 Este 9 Sudeste 0 -- -- 100
2019-05-22 08:00:00 4.2 2 Sudeste 6 Este 0 -- -- 99
2019-05-22 07:00:00 4 0 Calma 5 Este 0 -- -- 99
2019-05-22 06:00:00 4 2 Este 7 Nordeste 0 -- -- 98
2019-05-22 05:00:00 4.1 3 Este 5 Sudeste 0 -- -- 97
2019-05-22 04:00:00 4.6 3 Nordeste 5 Nordeste 0 -- -- 96
2019-05-22 03:00:00 5.4 0 Calma 6 Norte 0 -- -- 95
2019-05-22 02:00:00 6.2 0 Calma 4 Nordeste 0 -- -- 94
2019-05-22 01:00:00 7.3 0 Calma 4 Oeste 0 -- -- 93
2019-05-22 00:00:00 8.6 0 Calma 6 Sudoeste 0 -- -- 92
2019-05-21 23:00:00 9 3 Noroeste 8 Este 0.2 -- -- 91
2019-05-21 22:00:00 9.9 4 Nordeste 10 Nordeste 0.4 -- -- 89
2019-05-21 21:00:00 11.4 4 Norte 32 Este 0 -- -- 83
2019-05-21 20:00:00 12.3 17 Este 38 Este 0 -- -- 68
2019-05-21 19:00:00 14.4 9 Este 35 Nordeste 0 -- -- 56
2019-05-21 18:00:00 14.9 20 Este 43 Este 0 -- -- 54
2019-05-21 17:00:00 16.8 9 Sudeste 22 Sudeste 0 -- -- 49
2019-05-21 16:00:00 17.8 5 Sudeste 14 Sudoeste 0 -- -- 44
2019-05-21 15:00:00 18.4 4 Oeste 12 Oeste 0 -- -- 39
2019-05-21 14:00:00 18.7 5 Sudoeste 17 Norte 0 -- -- 42
2019-05-21 13:00:00 17.9 6 Sur 14 Noroeste 0 -- -- 45
2019-05-21 12:00:00 15 4 Sur 8 Sur 0 -- -- 57
2019-05-21 11:00:00 11.2 4 Sur 11 Sur 0 -- -- 74
2019-05-21 10:00:00 8.1 3 Sur 14 Este 0 -- -- 87
2019-05-21 09:00:00 7 7 Este 14 Nordeste 0 -- -- 89
2019-05-21 08:00:00 6.3 4 Este 9 Nordeste 0 -- -- 94
2019-05-21 07:00:00 5.9 3 Nordeste 6 Norte 0 -- -- 94
2019-05-21 06:00:00 6 0 Calma 10 Norte 0 -- -- 94
2019-05-21 05:00:00 6.3 3 Norte 8 Sudoeste 0 -- -- 94
2019-05-21 04:00:00 6.5 2 Noroeste 10 Norte 0 -- -- 94
2019-05-21 03:00:00 6.7 3 Norte 5 Norte 0 -- -- 96
2019-05-21 02:00:00 7 0 Calma 5 Nordeste 0 -- -- 94
2019-05-21 01:00:00 7.7 0 Calma 5 Norte 0 -- -- 95
2019-05-21 00:00:00 8 0 Calma 4 Este 0.2 -- -- 95